Time;durP1;ratioP1;P1;durP2;ratioP2;P2;SDS_P1;SDS_P2;PMS_P1;PMS_P2;Temp;Humidity;BMP_temperature;BMP_pressure;BME280_temperature;BME280_humidity;BME280_pressure;Samples;Min_cycle;Max_cycle;Signal;HPM_P1;HPM_P2
2023/08/03 00:04:05;;;;;;;18.48;17.17;;;;;;;;;;10195302;28;20050;-73
2023/08/03 00:09:01;;;;;;;16.27;15.23;;;;;;;;;;10193009;28;20538;-73
2023/08/03 00:13:58;;;;;;;16.90;15.70;;;;;;;;;;10183328;28;20057;-74
2023/08/03 00:18:54;;;;;;;18.98;17.75;;;;;;;;;;10233004;28;20141;-73
2023/08/03 00:23:50;;;;;;;16.95;15.73;;;;;;;;;;10216293;28;20054;-74
2023/08/03 00:28:47;;;;;;;16.60;15.35;;;;;;;;;;10232381;28;20084;-73
2023/08/03 00:33:43;;;;;;;16.73;15.30;;;;;;;;;;10214760;28;20053;-74
2023/08/03 00:38:39;;;;;;;16.52;15.13;;;;;;;;;;10238984;28;20045;-73
2023/08/03 00:43:35;;;;;;;15.13;14.02;;;;;;;;;;10239987;28;20103;-73
2023/08/03 00:48:32;;;;;;;16.42;15.18;;;;;;;;;;10221891;28;20092;-73
2023/08/03 00:53:29;;;;;;;15.05;13.77;;;;;;;;;;10202995;28;20049;-73
2023/08/03 00:58:25;;;;;;;15.32;14.32;;;;;;;;;;10218732;28;20050;-73
2023/08/03 01:03:22;;;;;;;16.05;14.73;;;;;;;;;;10200875;28;20062;-73
2023/08/03 01:08:18;;;;;;;15.75;14.65;;;;;;;;;;10208419;28;20046;-73
2023/08/03 01:13:14;;;;;;;15.00;13.90;;;;;;;;;;10198164;28;20052;-73
2023/08/03 01:18:11;;;;;;;15.38;14.10;;;;;;;;;;10220528;28;20072;-73
2023/08/03 01:23:08;;;;;;;16.35;15.13;;;;;;;;;;10216758;28;20142;-73
2023/08/03 01:28:05;;;;;;;16.02;14.65;;;;;;;;;;10237151;28;20061;-73
2023/08/03 01:33:01;;;;;;;15.35;14.25;;;;;;;;;;10216647;28;20515;-73
2023/08/03 01:37:57;;;;;;;16.48;15.00;;;;;;;;;;10219691;28;20049;-73
2023/08/03 01:42:54;;;;;;;16.38;15.27;;;;;;;;;;10235266;28;20045;-73
2023/08/03 01:47:50;;;;;;;17.08;15.48;;;;;;;;;;10235567;28;20478;-71
2023/08/03 01:52:48;;;;;;;15.55;14.50;;;;;;;;;;10179437;28;20057;-73
2023/08/03 01:57:44;;;;;;;16.90;15.60;;;;;;;;;;10195952;28;20094;-73
2023/08/03 02:02:40;;;;;;;16.15;14.85;;;;;;;;;;10196744;28;20564;-73
2023/08/03 02:07:53;;;;;;;17.13;15.77;;;;;;;;;;10232912;28;20054;-73
2023/08/03 02:12:49;;;;;;;16.33;15.18;;;;;;;;;;10228446;28;20050;-73
2023/08/03 02:17:46;;;;;;;16.90;15.35;;;;;;;;;;10234290;28;20049;-73
2023/08/03 02:22:42;;;;;;;15.90;14.63;;;;;;;;;;10221874;28;20078;-73
2023/08/03 02:27:39;;;;;;;15.48;14.38;;;;;;;;;;10232905;28;20507;-73
2023/08/03 02:32:35;;;;;;;16.13;14.98;;;;;;;;;;10207947;28;20093;-74
2023/08/03 02:37:32;;;;;;;15.55;14.45;;;;;;;;;;10231673;28;20136;-74
2023/08/03 02:42:28;;;;;;;16.70;15.45;;;;;;;;;;10205286;28;20586;-73
2023/08/03 02:47:24;;;;;;;16.85;15.35;;;;;;;;;;10230696;28;20056;-73
2023/08/03 02:52:21;;;;;;;16.80;15.27;;;;;;;;;;10198015;28;20511;-73
2023/08/03 02:57:17;;;;;;;16.65;15.25;;;;;;;;;;10221319;28;20161;-74
2023/08/03 03:02:13;;;;;;;16.50;15.23;;;;;;;;;;10195296;28;20053;-73
2023/08/03 03:07:10;;;;;;;17.05;15.60;;;;;;;;;;10206682;28;20520;-74
2023/08/03 03:12:06;;;;;;;17.23;16.08;;;;;;;;;;10194868;28;20050;-73
2023/08/03 03:17:03;;;;;;;16.20;15.10;;;;;;;;;;10207850;28;20057;-72
2023/08/03 03:21:59;;;;;;;15.70;14.60;;;;;;;;;;10234528;28;20512;-72
2023/08/03 03:26:55;;;;;;;16.27;15.18;;;;;;;;;;10204022;28;20108;-73
2023/08/03 03:31:52;;;;;;;15.38;14.18;;;;;;;;;;10194206;28;20534;-72
2023/08/03 03:36:48;;;;;;;16.33;15.02;;;;;;;;;;10224035;28;20482;-73
2023/08/03 03:41:45;;;;;;;16.52;15.02;;;;;;;;;;10219949;28;20050;-72
2023/08/03 03:46:42;;;;;;;16.85;15.65;;;;;;;;;;10223139;28;20055;-73
2023/08/03 03:51:38;;;;;;;16.38;15.30;;;;;;;;;;10207688;28;20526;-70
2023/08/03 03:56:34;;;;;;;17.10;15.70;;;;;;;;;;10222263;28;20080;-73
2023/08/03 04:01:31;;;;;;;18.08;16.77;;;;;;;;;;10200485;28;20508;-72
2023/08/03 04:06:27;;;;;;;17.52;16.13;;;;;;;;;;10214092;28;20057;-72
2023/08/03 04:11:23;;;;;;;17.60;16.02;;;;;;;;;;10201534;28;20072;-72
2023/08/03 04:16:20;;;;;;;16.95;15.93;;;;;;;;;;10204889;28;20054;-72
2023/08/03 04:21:16;;;;;;;17.48;16.17;;;;;;;;;;10200940;28;20050;-72
2023/08/03 04:26:12;;;;;;;16.45;15.00;;;;;;;;;;10239948;28;20150;-73
2023/08/03 04:31:09;;;;;;;17.80;16.52;;;;;;;;;;10222172;28;20061;-72
2023/08/03 04:36:05;;;;;;;16.50;15.32;;;;;;;;;;10224911;28;20085;-73
2023/08/03 04:41:01;;;;;;;16.77;15.13;;;;;;;;;;10220669;28;20057;-73
2023/08/03 04:45:58;;;;;;;17.27;15.80;;;;;;;;;;10206371;28;20053;-72
2023/08/03 04:50:54;;;;;;;16.63;15.43;;;;;;;;;;10209061;28;20763;-73
2023/08/03 04:55:50;;;;;;;17.05;15.63;;;;;;;;;;10216271;28;20061;-72
2023/08/03 05:00:47;;;;;;;16.80;15.52;;;;;;;;;;10199026;28;20042;-72
2023/08/03 05:05:43;;;;;;;17.05;15.75;;;;;;;;;;10203279;28;20557;-73
2023/08/03 05:10:39;;;;;;;17.35;15.93;;;;;;;;;;10238603;28;20052;-73
2023/08/03 05:15:36;;;;;;;16.38;15.18;;;;;;;;;;10216505;28;20104;-73
2023/08/03 05:20:32;;;;;;;16.33;15.13;;;;;;;;;;10238561;28;20120;-73
2023/08/03 05:25:28;;;;;;;16.42;15.32;;;;;;;;;;10222395;28;20108;-73
2023/08/03 05:30:25;;;;;;;15.73;14.32;;;;;;;;;;10237702;28;20041;-73
2023/08/03 05:35:21;;;;;;;17.08;15.73;;;;;;;;;;10219712;28;20092;-72
2023/08/03 05:40:17;;;;;;;16.33;14.82;;;;;;;;;;10237284;28;20659;-73
2023/08/03 05:45:32;;;;;;;15.65;14.55;;;;;;;;;;10197319;28;20118;-72
2023/08/03 05:50:29;;;;;;;15.55;14.35;;;;;;;;;;10236826;28;20049;-72
2023/08/03 05:55:25;;;;;;;14.85;13.73;;;;;;;;;;10237519;28;20577;-72
2023/08/03 06:00:22;;;;;;;15.10;14.10;;;;;;;;;;10218998;28;20467;-72
2023/08/03 06:05:37;;;;;;;15.45;14.10;;;;;;;;;;10215367;28;20060;-72
2023/08/03 06:10:34;;;;;;;15.27;14.18;;;;;;;;;;10207448;28;20463;-72
2023/08/03 06:15:30;;;;;;;16.02;14.88;;;;;;;;;;10207463;28;20041;-72
2023/08/03 06:20:26;;;;;;;14.57;13.65;;;;;;;;;;10196218;28;20065;-72
2023/08/03 06:25:23;;;;;;;14.43;13.43;;;;;;;;;;10214390;28;20103;-72
2023/08/03 06:30:19;;;;;;;14.98;13.95;;;;;;;;;;10235206;28;20119;-72
2023/08/03 06:35:28;;;;;;;15.10;14.10;;;;;;;;;;10220652;28;20103;-72
2023/08/03 06:40:27;;;;;;;15.23;13.85;;;;;;;;;;10234437;28;20046;-72
2023/08/03 06:45:24;;;;;;;14.43;13.48;;;;;;;;;;10234585;28;20633;-72
2023/08/03 06:50:20;;;;;;;14.35;13.40;;;;;;;;;;10211606;28;20053;-72
2023/08/03 06:55:16;;;;;;;14.88;13.82;;;;;;;;;;10213072;28;20050;-72
2023/08/03 07:00:13;;;;;;;13.82;12.85;;;;;;;;;;10234223;28;20057;-73
2023/08/03 07:05:09;;;;;;;14.32;13.43;;;;;;;;;;10235022;28;20053;-72
2023/08/03 07:10:06;;;;;;;14.20;13.10;;;;;;;;;;10201902;28;20057;-72
2023/08/03 07:15:03;;;;;;;14.40;13.50;;;;;;;;;;10204457;28;20502;-72
2023/08/03 07:19:59;;;;;;;13.57;12.77;;;;;;;;;;10195141;28;20062;-72
2023/08/03 07:24:56;;;;;;;13.80;13.00;;;;;;;;;;10207742;28;20057;-72
2023/08/03 07:29:53;;;;;;;13.38;12.57;;;;;;;;;;10233970;28;20077;-72
2023/08/03 07:34:49;;;;;;;14.02;13.02;;;;;;;;;;10227862;28;20050;-71
2023/08/03 07:39:46;;;;;;;13.23;12.43;;;;;;;;;;10235666;28;20072;-72
2023/08/03 07:44:42;;;;;;;13.80;12.88;;;;;;;;;;10234657;28;20049;-73
2023/08/03 07:49:41;;;;;;;15.43;14.48;;;;;;;;;;10241305;28;20045;-72
2023/08/03 07:54:37;;;;;;;16.17;14.98;;;;;;;;;;10224976;28;20054;-72
2023/08/03 07:59:50;;;;;;;15.43;14.50;;;;;;;;;;10304936;23;20050;-72
2023/08/03 08:05:37;;;;;;;15.15;14.25;;;;;;;;;;10174348;28;20054;-72
2023/08/03 08:11:09;;;;;;;14.25;13.43;;;;;;;;;;10208034;28;20093;-71
2023/08/03 08:16:16;;;;;;;14.27;13.27;;;;;;;;;;10195631;28;20049;-71
2023/08/03 08:21:12;;;;;;;14.30;13.40;;;;;;;;;;10200746;28;20065;-72
2023/08/03 08:26:10;;;;;;;13.40;12.60;;;;;;;;;;10221739;28;20066;-72
2023/08/03 08:31:06;;;;;;;14.80;13.90;;;;;;;;;;10198734;28;20465;-72
2023/08/03 08:36:03;;;;;;;13.00;12.20;;;;;;;;;;10204287;28;20086;-73
2023/08/03 08:41:00;;;;;;;15.13;13.98;;;;;;;;;;10198561;28;20160;-72
2023/08/03 08:45:56;;;;;;;13.50;12.70;;;;;;;;;;10232902;28;20053;-73
2023/08/03 08:50:58;;;;;;;13.35;12.55;;;;;;;;;;10229604;28;20057;-73
2023/08/03 08:56:00;;;;;;;14.75;13.43;;;;;;;;;;10222308;28;20045;-72
2023/08/03 09:01:02;;;;;;;13.40;12.60;;;;;;;;;;10217159;28;20056;-73
2023/08/03 09:06:00;;;;;;;11.90;11.20;;;;;;;;;;10221311;28;20477;-73
2023/08/03 09:10:59;;;;;;;12.30;11.50;;;;;;;;;;10204046;28;20046;-72
2023/08/03 09:15:56;;;;;;;11.95;11.02;;;;;;;;;;10221077;28;20072;-72
2023/08/03 09:21:07;;;;;;;13.57;12.60;;;;;;;;;;10202856;28;20120;-72
2023/08/03 09:26:06;;;;;;;12.63;11.73;;;;;;;;;;10220611;28;20041;-72
2023/08/03 09:31:47;;;;;;;12.07;11.20;;;;;;;;;;10266567;23;20123;-72
2023/08/03 09:36:48;;;;;;;;;;;;;;;;;;10082945;28;20398;-72
2023/08/03 09:42:05;;;;;;;11.85;10.88;;;;;;;;;;10139232;28;19926;-73
2023/08/03 09:47:05;;;;;;;13.73;12.73;;;;;;;;;;10158130;28;20046;-72
2023/08/03 09:52:05;;;;;;;10.70;10.00;;;;;;;;;;10155914;28;20101;-72
2023/08/03 10:02:23;;;;;;;11.55;10.85;;;;;;;;;;10181360;28;20038;-72
2023/08/03 10:07:21;;;;;;;12.85;12.05;;;;;;;;;;10191640;28;20050;-71
2023/08/03 10:12:19;;;;;;;13.27;12.38;;;;;;;;;;10129845;28;20058;-72
2023/08/03 10:17:17;;;;;;;12.80;11.90;;;;;;;;;;10136425;28;20046;-73
2023/08/03 10:22:13;;;;;;;14.70;13.60;;;;;;;;;;10155374;28;20054;-73
2023/08/03 10:27:19;;;;;;;14.27;13.38;;;;;;;;;;10147577;28;20524;-73
2023/08/03 10:32:21;;;;;;;14.55;13.65;;;;;;;;;;10115647;28;20047;-73
2023/08/03 10:37:17;;;;;;;14.30;13.38;;;;;;;;;;10126930;28;20057;-73
2023/08/03 10:42:21;;;;;;;15.77;14.60;;;;;;;;;;10115259;28;20161;-73
2023/08/03 10:47:29;;;;;;;13.85;12.95;;;;;;;;;;10113793;28;20105;-72
2023/08/03 10:52:28;;;;;;;14.70;13.35;;;;;;;;;;10114602;28;20045;-73
2023/08/03 10:57:26;;;;;;;14.73;13.82;;;;;;;;;;10148458;28;20539;-72
2023/08/03 11:02:22;;;;;;;15.32;14.27;;;;;;;;;;10137689;28;20067;-73
2023/08/03 11:07:53;;;;;;;16.42;15.23;;;;;;;;;;10175581;23;20028;-73
2023/08/03 11:13:13;;;;;;;;;;;;;;;;;;10023009;28;20048;-74
2023/08/03 11:18:13;;;;;;;15.25;14.05;;;;;;;;;;10068844;29;19926;-73
2023/08/03 11:23:12;;;;;;;13.60;12.73;;;;;;;;;;10041964;29;20055;-74
2023/08/03 11:28:15;;;;;;;12.45;11.65;;;;;;;;;;10068361;28;20529;-73
2023/08/03 11:33:13;;;;;;;11.77;10.95;;;;;;;;;;10030913;28;20103;-73
2023/08/03 11:38:10;;;;;;;10.50;9.80;;;;;;;;;;10049983;29;20052;-73
2023/08/03 11:43:07;;;;;;;11.85;10.95;;;;;;;;;;10030660;29;20048;-73
2023/08/03 11:48:05;;;;;;;15.30;14.20;;;;;;;;;;10113329;28;20050;-73
2023/08/03 11:53:01;;;;;;;12.80;11.77;;;;;;;;;;10192769;28;20567;-71
2023/08/03 11:58:14;;;;;;;12.23;11.35;;;;;;;;;;10190912;28;20054;-71
2023/08/03 12:03:10;;;;;;;14.32;13.38;;;;;;;;;;10179377;28;20113;-71
2023/08/03 12:08:08;;;;;;;12.75;11.93;;;;;;;;;;10232322;28;20107;-71
2023/08/03 12:13:04;;;;;;;18.20;15.15;;;;;;;;;;10166662;28;20082;-71
2023/08/03 12:18:01;;;;;;;14.00;13.00;;;;;;;;;;10222207;28;20054;-71
2023/08/03 12:22:57;;;;;;;14.30;13.40;;;;;;;;;;10152201;28;20054;-71
2023/08/03 12:27:58;;;;;;;13.70;12.80;;;;;;;;;;10207996;28;20705;-72
2023/08/03 12:32:54;;;;;;;14.40;13.35;;;;;;;;;;10159560;28;20405;-71
2023/08/03 12:37:50;;;;;;;15.45;14.50;;;;;;;;;;10215564;28;20064;-72
2023/08/03 12:42:54;;;;;;;14.55;13.65;;;;;;;;;;10198826;28;20049;-72
2023/08/03 12:52:55;;;;;;;14.68;13.77;;;;;;;;;;9929337;26;20142;-72
2023/08/03 12:57:52;;;;;;;14.50;13.50;;;;;;;;;;10220647;28;20048;-73
2023/08/03 13:02:48;;;;;;;13.20;12.30;;;;;;;;;;10217594;28;20057;-73
2023/08/03 13:12:56;;;;;;;8.27;7.57;;;;;;;;;;10226678;23;20041;-72
2023/08/03 13:17:58;;;;;;;7.60;6.90;;;;;;;;;;10197493;28;20129;-72
2023/08/03 13:22:56;;;;;;;8.70;8.00;;;;;;;;;;10197208;28;20420;-72
2023/08/03 13:27:53;;;;;;;9.80;8.93;;;;;;;;;;10236461;28;20081;-72
2023/08/03 13:32:49;;;;;;;12.18;11.02;;;;;;;;;;10204007;28;20050;-72
2023/08/03 13:37:45;;;;;;;11.50;10.70;;;;;;;;;;10234676;28;20091;-72
2023/08/03 13:42:42;;;;;;;12.20;11.30;;;;;;;;;;10212149;28;20056;-72
2023/08/03 13:48:20;;;;;;;12.07;11.15;;;;;;;;;;10282121;23;20080;-73
2023/08/03 13:53:09;;;;;;;10.23;9.50;;;;;;;;;;10206387;28;20534;-72
2023/08/03 13:58:07;;;;;;;12.68;11.88;;;;;;;;;;10234727;28;20081;-73
2023/08/03 14:03:06;;;;;;;12.93;12.02;;;;;;;;;;10236273;28;20053;-72
2023/08/03 14:08:04;;;;;;;13.63;12.32;;;;;;;;;;10220932;28;20096;-74
2023/08/03 14:13:01;;;;;;;16.17;14.82;;;;;;;;;;10195665;28;20419;-73
2023/08/03 14:17:58;;;;;;;14.63;13.25;;;;;;;;;;10214273;23;20050;-73
2023/08/03 14:22:54;;;;;;;15.27;14.13;;;;;;;;;;10207323;28;20084;-72
2023/08/03 14:27:52;;;;;;;15.23;13.80;;;;;;;;;;10198747;28;20534;-73
2023/08/03 14:32:48;;;;;;;14.73;13.45;;;;;;;;;;10195225;28;20046;-73
2023/08/03 14:37:45;;;;;;;16.13;14.90;;;;;;;;;;10233048;28;20603;-71
2023/08/03 14:42:43;;;;;;;16.02;14.75;;;;;;;;;;10215237;28;20064;-71
2023/08/03 14:47:45;;;;;;;13.73;11.38;;;;;;;;;;10231110;28;20049;-72
2023/08/03 14:52:44;;;;;;;15.52;14.15;;;;;;;;;;10210214;28;20050;-72
2023/08/03 14:57:40;;;;;;;14.02;13.00;;;;;;;;;;10231194;28;20073;-72
2023/08/03 15:02:36;;;;;;;11.00;10.20;;;;;;;;;;10193516;28;20078;-71
2023/08/03 15:07:35;;;;;;;10.85;10.00;;;;;;;;;;10259653;22;20105;-71
2023/08/03 15:12:31;;;;;;;12.10;11.07;;;;;;;;;;10193142;28;20432;-71
2023/08/03 15:17:28;;;;;;;14.25;12.93;;;;;;;;;;10191239;28;20056;-72
2023/08/03 15:22:32;;;;;;;10.45;9.50;;;;;;;;;;10193337;28;20046;-71
2023/08/03 15:27:30;;;;;;;13.38;10.13;;;;;;;;;;10166289;28;20508;-71
2023/08/03 15:32:28;;;;;;;9.13;7.97;;;;;;;;;;10136001;28;20075;-71
2023/08/03 15:37:30;;;;;;;7.25;6.53;;;;;;;;;;10224897;28;20057;-71
2023/08/03 15:42:27;;;;;;;9.07;7.97;;;;;;;;;;10206013;28;20495;-72
2023/08/03 16:03:51;;;;;;;6.75;5.47;;;;;;;;;;10261222;22;20599;-72
2023/08/03 16:08:47;;;;;;;10.55;5.57;;;;;;;;;;10197006;28;20054;-72
2023/08/03 16:13:43;;;;;;;6.80;5.80;;;;;;;;;;10205460;28;20388;-73
2023/08/03 16:18:48;;;;;;;5.75;5.10;;;;;;;;;;10397777;23;20708;-71
2023/08/03 16:23:44;;;;;;;8.18;5.13;;;;;;;;;;10226049;28;20050;-72
2023/08/03 16:33:55;;;;;;;7.07;6.40;;;;;;;;;;9968640;23;20053;-72
2023/08/03 16:39:42;;;;;;;5.95;5.45;;;;;;;;;;10223699;23;20511;-72
2023/08/03 16:46:00;;;;;;;;;;;;;;;;;;;;;
2023/08/03 16:51:01;;;;;;;6.82;6.13;;;;;;;;;;10068786;28;20053;-72
2023/08/03 16:55:58;;;;;;;7.47;5.32;;;;;;;;;;10182093;28;20078;-73
2023/08/03 17:00:54;;;;;;;10.35;7.57;;;;;;;;;;10283476;23;20058;-72
2023/08/03 17:05:54;;;;;;;6.95;6.28;;;;;;;;;;10205348;28;20060;-73
2023/08/03 17:10:51;;;;;;;8.85;6.15;;;;;;;;;;10209068;28;20058;-72
2023/08/03 17:15:47;;;;;;;7.78;6.50;;;;;;;;;;10201272;28;20145;-72
2023/08/03 17:20:44;;;;;;;8.25;6.53;;;;;;;;;;10202659;28;20039;-72
2023/08/03 17:25:41;;;;;;;6.43;5.82;;;;;;;;;;10200052;28;20049;-74
2023/08/03 17:30:38;;;;;;;7.78;6.22;;;;;;;;;;10198520;28;20098;-73
2023/08/03 17:35:34;;;;;;;7.28;5.70;;;;;;;;;;10197506;28;20049;-72
2023/08/03 17:40:30;;;;;;;9.13;6.00;;;;;;;;;;10161382;28;20535;-73
2023/08/03 17:45:27;;;;;;;7.50;6.00;;;;;;;;;;10165047;28;20054;-72
2023/08/03 17:50:23;;;;;;;6.30;5.70;;;;;;;;;;10219375;23;20132;-72
2023/08/03 17:55:19;;;;;;;6.93;6.22;;;;;;;;;;10272350;28;20056;-72
2023/08/03 18:00:16;;;;;;;6.90;6.25;;;;;;;;;;10277075;28;20059;-72
2023/08/03 18:05:12;;;;;;;5.97;5.47;;;;;;;;;;10271682;28;20052;-72
2023/08/03 18:10:09;;;;;;;6.13;5.65;;;;;;;;;;10312846;28;20044;-73
2023/08/03 18:15:06;;;;;;;6.65;6.05;;;;;;;;;;10251769;28;20051;-72
2023/08/03 18:20:03;;;;;;;7.40;6.80;;;;;;;;;;10298541;28;20103;-72
2023/08/03 18:24:59;;;;;;;7.68;7.07;;;;;;;;;;10266393;28;20387;-72
2023/08/03 18:29:56;;;;;;;7.00;6.40;;;;;;;;;;10293275;28;20057;-73
2023/08/03 18:34:52;;;;;;;6.72;6.10;;;;;;;;;;10264213;28;20049;-72
2023/08/03 18:39:49;;;;;;;7.30;6.35;;;;;;;;;;10301077;28;20052;-72
2023/08/03 18:44:45;;;;;;;9.10;7.97;;;;;;;;;;10289107;28;20502;-73
2023/08/03 18:49:41;;;;;;;10.13;6.68;;;;;;;;;;10289055;28;20065;-72
2023/08/03 18:54:38;;;;;;;9.60;8.07;;;;;;;;;;10260238;28;20051;-73
2023/08/03 18:59:34;;;;;;;10.32;8.75;;;;;;;;;;10293958;28;20395;-73
2023/08/03 19:04:32;;;;;;;8.13;7.40;;;;;;;;;;10286405;28;20056;-72
2023/08/03 19:15:17;;;;;;;10.80;8.05;;;;;;;;;;10197275;28;20066;-72
2023/08/03 19:20:13;;;;;;;10.50;9.50;;;;;;;;;;10474624;23;20492;-73
2023/08/03 19:25:42;;;;;;;10.40;8.68;;;;;;;;;;10188653;28;20065;-73
2023/08/03 19:30:39;;;;;;;11.02;9.32;;;;;;;;;;10190560;28;20046;-73
2023/08/03 19:35:36;;;;;;;12.85;11.63;;;;;;;;;;10222574;28;20058;-73
2023/08/03 19:40:32;;;;;;;14.23;11.77;;;;;;;;;;10232810;28;20045;-73
2023/08/03 19:45:29;;;;;;;12.70;11.43;;;;;;;;;;10212826;28;20403;-73
2023/08/03 19:50:26;;;;;;;14.60;13.40;;;;;;;;;;10219952;28;20053;-73
2023/08/03 19:55:23;;;;;;;13.88;12.45;;;;;;;;;;10193970;28;20137;-73
2023/08/03 20:00:22;;;;;;;19.70;14.98;;;;;;;;;;10205015;28;20062;-73
2023/08/03 20:05:21;;;;;;;16.98;13.38;;;;;;;;;;10211008;28;20057;-73
2023/08/03 20:10:20;;;;;;;15.85;14.10;;;;;;;;;;10198518;28;20101;-73
2023/08/03 20:15:17;;;;;;;16.17;14.38;;;;;;;;;;10208900;28;20143;-73
2023/08/03 20:20:13;;;;;;;15.65;14.13;;;;;;;;;;10232077;28;20104;-73
2023/08/03 20:25:09;;;;;;;16.13;14.45;;;;;;;;;;10230008;28;20068;-73
2023/08/03 20:30:08;;;;;;;16.63;14.95;;;;;;;;;;10231607;28;20046;-73
2023/08/03 20:35:05;;;;;;;17.25;15.63;;;;;;;;;;10199118;28;20495;-73
2023/08/03 20:40:04;;;;;;;16.02;14.45;;;;;;;;;;10229683;28;20136;-73
2023/08/03 20:45:00;;;;;;;17.02;15.18;;;;;;;;;;10232032;28;20053;-72
2023/08/03 20:49:57;;;;;;;14.48;13.18;;;;;;;;;;10217059;28;20100;-72
2023/08/03 20:54:53;;;;;;;18.20;13.70;;;;;;;;;;10195917;28;20046;-72
2023/08/03 20:59:49;;;;;;;14.60;13.00;;;;;;;;;;10201616;28;20062;-73
2023/08/03 21:04:46;;;;;;;17.05;12.55;;;;;;;;;;10211972;28;20053;-72
2023/08/03 21:09:45;;;;;;;14.90;11.77;;;;;;;;;;10236246;28;20694;-72
2023/08/03 21:15:01;;;;;;;16.35;13.15;;;;;;;;;;10238269;28;20157;-72
2023/08/03 21:20:02;;;;;;;21.50;11.50;;;;;;;;;;10236168;28;20526;-72
2023/08/03 21:24:59;;;;;;;14.00;11.98;;;;;;;;;;10218002;28;20062;-72
2023/08/03 21:29:55;;;;;;;14.55;10.65;;;;;;;;;;10237042;28;20100;-72
2023/08/03 21:34:51;;;;;;;12.93;11.60;;;;;;;;;;10214275;28;20619;-72
2023/08/03 21:39:48;;;;;;;14.85;11.75;;;;;;;;;;10248989;22;20213;-72
2023/08/03 21:44:44;;;;;;;14.25;12.48;;;;;;;;;;10239345;28;20548;-72
2023/08/03 21:49:40;;;;;;;14.75;12.43;;;;;;;;;;10258740;28;20061;-72
2023/08/03 21:54:37;;;;;;;18.33;13.45;;;;;;;;;;10259987;28;20045;-73
2023/08/03 21:59:33;;;;;;;23.40;13.20;;;;;;;;;;10276294;28;20055;-73
2023/08/03 22:04:30;;;;;;;15.88;12.00;;;;;;;;;;10238136;28;20115;-73
2023/08/03 22:09:26;;;;;;;13.98;12.00;;;;;;;;;;10273648;28;20045;-72
2023/08/03 22:14:22;;;;;;;14.98;13.27;;;;;;;;;;10216970;28;20101;-73
2023/08/03 22:19:19;;;;;;;15.20;13.25;;;;;;;;;;10265311;28;20049;-73
2023/08/03 22:24:17;;;;;;;14.57;13.05;;;;;;;;;;10245418;28;20071;-73
2023/08/03 22:35:48;;;;;;;15.60;13.80;;;;;;;;;;10160798;28;20077;-74
2023/08/03 22:41:18;;;;;;;17.13;14.48;;;;;;;;;;10106994;28;20433;-74
2023/08/03 22:46:37;;;;;;;17.65;14.73;;;;;;;;;;10108172;28;20053;-74
2023/08/03 22:51:39;;;;;;;16.30;13.52;;;;;;;;;;10161872;28;20149;-74
2023/08/03 22:56:35;;;;;;;21.58;12.40;;;;;;;;;;10202533;28;20443;-75
2023/08/03 23:01:31;;;;;;;15.30;12.65;;;;;;;;;;10228409;28;20463;-75
2023/08/03 23:06:28;;;;;;;22.15;12.73;;;;;;;;;;10208979;28;20065;-75
2023/08/03 23:11:24;;;;;;;17.20;12.40;;;;;;;;;;10201788;28;20100;-74
2023/08/03 23:16:20;;;;;;;15.32;11.98;;;;;;;;;;10207620;28;20053;-74
2023/08/03 23:21:49;;;;;;;14.80;12.43;;;;;;;;;;10236310;22;20462;-74
2023/08/03 23:26:45;;;;;;;13.18;10.85;;;;;;;;;;10248230;28;20118;-74
2023/08/03 23:31:42;;;;;;;15.00;10.32;;;;;;;;;;10211325;28;20073;-74
2023/08/03 23:36:38;;;;;;;12.13;10.48;;;;;;;;;;10237945;28;20093;-74
2023/08/03 23:41:34;;;;;;;16.23;10.85;;;;;;;;;;10192877;28;20058;-74
2023/08/03 23:46:31;;;;;;;14.85;11.15;;;;;;;;;;10237911;28;20061;-74
